Time;durP1;ratioP1;P1;durP2;ratioP2;P2;SDS_P1;SDS_P2;PMS_P1;PMS_P2;Temp;Humidity;BMP_temperature;BMP_pressure;BME280_temperature;BME280_humidity;BME280_pressure;Samples;Min_cycle;Max_cycle;Signal;HPM_P1;HPM_P2
2023/11/28 00:01:47;;;;;;;;;;;3.00;99.90;;;2.20;100.00;95333.97;5002300;28;1957;-73
2023/11/28 00:04:14;;;;;;;;;;;3.10;99.90;;;2.17;100.00;95334.13;5021643;28;1585;-71
2023/11/28 00:06:41;;;;;;;;;;;3.10;99.90;;;2.25;100.00;95330.28;5018936;28;1901;-73
2023/11/28 00:09:08;;;;;;;;;;;3.10;99.90;;;2.22;100.00;95322.75;5020376;28;1430;-72
2023/11/28 00:11:35;;;;;;;;;;;3.10;99.90;;;2.28;100.00;95321.63;5017640;28;1551;-72
2023/11/28 00:14:02;;;;;;;;;;;3.10;99.90;;;2.30;100.00;95319.81;5004456;28;1911;-72
2023/11/28 00:16:29;;;;;;;;;;;3.10;99.90;;;2.23;100.00;95314.16;5000755;28;1629;-72
2023/11/28 00:18:56;;;;;;;;;;;3.20;99.90;;;2.37;100.00;95321.19;5018195;28;1481;-72
2023/11/28 00:21:23;;;;;;;;;;;3.20;99.90;;;2.42;100.00;95316.72;5019384;28;1717;-72
2023/11/28 00:23:50;;;;;;;;;;;3.20;99.90;;;2.32;100.00;95307.78;5001513;28;1418;-75
2023/11/28 00:26:18;;;;;;;;;;;3.20;99.90;;;2.30;100.00;95307.88;5002114;28;1740;-72
2023/11/28 00:28:45;;;;;;;;;;;3.20;99.90;;;2.35;100.00;95300.00;5016660;28;1584;-71
2023/11/28 00:31:12;;;;;;;;;;;3.20;99.90;;;2.40;100.00;95303.16;5020990;28;1829;-73
2023/11/28 00:33:39;;;;;;;;;;;3.30;99.90;;;2.54;100.00;95310.19;5006076;28;1911;-72
2023/11/28 00:36:06;;;;;;;;;;;3.30;99.90;;;2.53;100.00;95307.69;5004421;28;1750;-74
2023/11/28 00:38:32;;;;;;;;;;;3.40;99.90;;;2.55;100.00;95300.75;5018447;28;1564;-73
2023/11/28 00:40:59;;;;;;;;;;;3.40;99.90;;;2.61;100.00;95300.47;5020805;28;1755;-72
2023/11/28 00:43:28;;;;;;;;;;;3.40;99.90;;;2.68;100.00;95307.78;5001535;28;1950;-74
2023/11/28 00:45:55;;;;;;;;;;;3.40;99.90;;;2.65;100.00;95307.13;5020447;28;1779;-72
2023/11/28 00:48:22;;;;;;;;;;;3.50;99.90;;;2.65;100.00;95302.81;5019185;28;1803;-73
2023/11/28 00:50:50;;;;;;;;;;;3.40;99.90;;;2.72;100.00;95299.06;5021366;28;1603;-74
2023/11/28 00:53:17;;;;;;;;;;;3.50;99.90;;;2.69;100.00;95308.63;5018413;28;1927;-73
2023/11/28 00:55:44;;;;;;;;;;;3.50;99.90;;;2.69;100.00;95300.94;5020191;28;1899;-73
2023/11/28 00:58:11;;;;;;;;;;;3.50;99.90;;;2.81;100.00;95302.09;5017032;28;1751;-73
2023/11/28 01:00:38;;;;;;;;;;;3.50;99.90;;;2.76;100.00;95301.47;5022104;28;1696;-73
2023/11/28 01:03:05;;;;;;;;;;;3.60;99.90;;;2.83;100.00;95297.69;5025008;28;1977;-73
2023/11/28 01:05:32;;;;;;;;;;;3.60;99.90;;;2.86;100.00;95295.81;5024157;28;1744;-72
2023/11/28 01:07:58;;;;;;;;;;;3.60;99.90;;;2.93;100.00;95293.81;5025096;28;1749;-73
2023/11/28 01:10:25;;;;;;;;;;;3.60;99.90;;;2.98;100.00;95301.25;5022520;28;1469;-73
2023/11/28 01:12:52;;;;;;;;;;;3.70;99.90;;;2.89;100.00;95297.41;5023806;28;2004;-73
2023/11/28 01:15:19;;;;;;;;;;;3.60;99.90;;;2.95;100.00;95307.38;5026235;28;1806;-73
2023/11/28 01:17:46;;;;;;;;;;;3.70;99.90;;;3.00;100.00;95295.16;5019243;28;2086;-72
2023/11/28 01:20:13;;;;;;;;;;;3.70;99.90;;;2.94;100.00;95298.00;5011753;28;1733;-73
2023/11/28 01:22:40;;;;;;;;;;;3.70;99.90;;;2.99;100.00;95290.09;5020405;28;1565;-73
2023/11/28 01:25:07;;;;;;;;;;;3.70;99.90;;;3.12;100.00;95289.44;5010568;28;1434;-74
2023/11/28 01:27:35;;;;;;;;;;;3.70;99.90;;;3.04;100.00;95300.97;5022038;28;1456;-73
2023/11/28 01:30:05;;;;;;;;;;;3.70;99.90;;;3.03;100.00;95302.69;5024570;28;1421;-72
2023/11/28 01:32:32;;;;;;;;;;;3.80;99.90;;;3.16;100.00;95308.03;5022666;28;1827;-72
2023/11/28 01:34:59;;;;;;;;;;;3.80;99.90;;;3.01;100.00;95298.53;5022005;28;1879;-73
2023/11/28 01:37:26;;;;;;;;;;;3.80;99.90;;;2.97;100.00;95294.50;5025470;28;1735;-73
2023/11/28 01:39:53;;;;;;;;;;;3.80;99.90;;;3.08;100.00;95300.75;5008443;28;1632;-73
2023/11/28 01:42:19;;;;;;;;;;;3.80;99.90;;;3.08;100.00;95294.75;5027758;28;1496;-72
2023/11/28 01:44:46;;;;;;;;;;;3.80;99.90;;;3.15;100.00;95296.13;5010897;28;1622;-73
2023/11/28 01:47:14;;;;;;;;;;;3.90;99.90;;;3.19;100.00;95299.38;5021272;28;1563;-73
2023/11/28 01:49:41;;;;;;;;;;;3.80;99.90;;;3.21;100.00;95302.69;5023652;28;1905;-73
2023/11/28 01:52:10;;;;;;;;;;;3.90;99.90;;;3.27;100.00;95305.78;5007753;28;1569;-74
2023/11/28 01:54:37;;;;;;;;;;;3.90;99.90;;;3.19;100.00;95307.88;5007183;28;1906;-73
2023/11/28 01:57:05;;;;;;;;;;;3.90;99.90;;;3.26;100.00;95308.41;5006567;28;1451;-73
2023/11/28 01:59:34;;;;;;;;;;;4.00;99.90;;;3.32;100.00;95315.78;5026936;28;1484;-73
2023/11/28 02:02:04;;;;;;;;;;;4.00;99.90;;;3.40;100.00;95317.97;5024645;28;1436;-72
2023/11/28 02:04:31;;;;;;;;;;;4.00;99.90;;;3.46;100.00;95325.34;5005246;28;1419;-73
2023/11/28 02:06:59;;;;;;;;;;;4.10;99.90;;;3.59;100.00;95323.81;5023736;28;1742;-72
2023/11/28 02:09:26;;;;;;;;;;;4.10;99.90;;;3.50;100.00;95317.44;5022753;28;1516;-72
2023/11/28 02:11:53;;;;;;;;;;;4.10;99.90;;;3.47;100.00;95332.16;5021643;28;1639;-72
2023/11/28 02:14:20;;;;;;;;;;;4.10;99.90;;;3.54;100.00;95323.25;5024451;28;1985;-73
2023/11/28 02:16:46;;;;;;;;;;;4.20;99.90;;;3.54;100.00;95339.44;5023720;28;1491;-73
2023/11/28 02:19:13;;;;;;;;;;;4.20;99.90;;;3.70;100.00;95341.25;5026343;28;1441;-73
2023/11/28 02:21:40;;;;;;;;;;;4.30;99.90;;;3.73;100.00;95347.03;5023230;28;1448;-73
2023/11/28 02:24:11;;;;;;;;;;;4.30;99.90;;;3.70;100.00;95343.81;5021800;28;1477;-73
2023/11/28 02:26:38;;;;;;;;;;;4.30;99.90;;;3.79;100.00;95345.91;5009047;28;1472;-73
2023/11/28 02:29:05;;;;;;;;;;;4.40;99.90;;;3.89;100.00;95336.81;5022500;28;1389;-73
2023/11/28 02:31:33;;;;;;;;;;;4.50;99.90;;;3.82;100.00;95344.91;5023934;28;1571;-73
2023/11/28 02:34:00;;;;;;;;;;;4.50;99.90;;;3.68;100.00;95338.75;5022308;28;1922;-73
2023/11/28 02:36:28;;;;;;;;;;;4.50;99.90;;;3.75;100.00;95347.78;5022123;28;1464;-73
2023/11/28 02:38:55;;;;;;;;;;;4.50;99.90;;;3.73;100.00;95343.66;5023202;28;1568;-72
2023/11/28 02:41:22;;;;;;;;;;;4.50;99.90;;;3.72;100.00;95353.09;5019153;28;1631;-72
2023/11/28 02:43:49;;;;;;;;;;;4.50;99.90;;;3.64;100.00;95364.63;5005193;28;1516;-72
2023/11/28 02:46:16;;;;;;;;;;;4.40;99.90;;;3.76;100.00;95366.56;5023349;28;1414;-70
2023/11/28 02:48:43;;;;;;;;;;;4.40;99.90;;;3.72;100.00;95370.22;5024401;28;1612;-72
2023/11/28 02:51:11;;;;;;;;;;;4.40;99.90;;;3.77;100.00;95376.75;5008910;28;1583;-72
2023/11/28 02:53:38;;;;;;;;;;;4.40;99.90;;;3.53;100.00;95370.31;5021709;28;1992;-72
2023/11/28 02:56:06;;;;;;;;;;;4.40;99.90;;;3.60;100.00;95381.91;5006046;28;1556;-72
2023/11/28 02:58:33;;;;;;;;;;;4.30;99.90;;;3.63;100.00;95376.66;5023904;28;1414;-72
2023/11/28 03:01:00;;;;;;;;;;;4.20;99.90;;;3.60;100.00;95381.09;5024735;28;1679;-73
2023/11/28 03:03:27;;;;;;;;;;;4.30;99.90;;;3.55;100.00;95381.31;5025042;28;1556;-72
2023/11/28 03:05:54;;;;;;;;;;;4.30;99.90;;;3.42;100.00;95381.13;5021136;28;1552;-73
2023/11/28 03:08:22;;;;;;;;;;;4.30;99.90;;;3.39;100.00;95383.00;5023818;28;1571;-71
2023/11/28 03:10:49;;;;;;;;;;;4.20;99.90;;;3.39;100.00;95388.94;5022854;28;1453;-72
2023/11/28 03:13:16;;;;;;;;;;;4.20;99.90;;;3.33;100.00;95384.09;5023502;28;1790;-71
2023/11/28 03:15:43;;;;;;;;;;;4.10;99.90;;;3.33;100.00;95395.22;5022115;28;1971;-74
2023/11/28 03:18:10;;;;;;;;;;;4.10;99.90;;;3.26;100.00;95401.56;5022131;28;1457;-71
2023/11/28 03:20:36;;;;;;;;;;;4.20;99.90;;;3.40;100.00;95413.69;5026690;28;1615;-72
2023/11/28 03:23:04;;;;;;;;;;;4.00;99.90;;;3.30;100.00;95412.47;5022844;28;1371;-71
2023/11/28 03:25:31;;;;;;;;;;;4.10;99.90;;;3.23;100.00;95414.50;5023639;28;1425;-72
2023/11/28 03:27:57;;;;;;;;;;;4.00;99.90;;;3.13;100.00;95414.13;5018484;28;1469;-72
2023/11/28 03:30:26;;;;;;;;;;;4.00;99.90;;;3.10;100.00;95409.16;5023360;28;1669;-73
2023/11/28 03:32:52;;;;;;;;;;;4.00;99.90;;;3.17;100.00;95412.25;5024800;28;1551;-72
2023/11/28 03:35:20;;;;;;;;;;;4.00;99.90;;;3.05;100.00;95415.38;5004905;28;1906;-72
2023/11/28 03:37:46;;;;;;;;;;;3.90;99.90;;;2.96;100.00;95426.88;5022066;28;1571;-72
2023/11/28 03:40:14;;;;;;;;;;;3.90;99.90;;;2.90;100.00;95428.03;5021175;28;1512;-72
2023/11/28 03:42:41;;;;;;;;;;;3.80;99.90;;;3.04;100.00;95426.56;5006227;28;1475;-72
2023/11/28 03:45:09;;;;;;;;;;;3.80;99.90;;;2.89;100.00;95431.47;5005335;28;1319;-72
2023/11/28 03:47:36;;;;;;;;;;;3.80;99.90;;;2.89;100.00;95438.34;5022371;28;1470;-72
2023/11/28 03:50:04;;;;;;;;;;;3.80;99.90;;;2.90;100.00;95443.41;5019450;28;1530;-72
2023/11/28 03:52:32;;;;;;;;;;;3.70;99.90;;;2.88;100.00;95446.94;5021022;28;1512;-71
2023/11/28 03:54:58;;;;;;;;;;;3.70;99.90;;;2.88;100.00;95457.19;5004693;28;1986;-72
2023/11/28 03:57:25;;;;;;;;;;;3.70;99.90;;;2.85;100.00;95462.44;5021122;28;1518;-77
2023/11/28 03:59:52;;;;;;;;;;;3.70;99.90;;;2.80;100.00;95469.50;5022659;28;1526;-72
2023/11/28 04:02:19;;;;;;;;;;;3.60;99.90;;;2.78;100.00;95477.25;5022038;28;1641;-72
2023/11/28 04:04:46;;;;;;;;;;;3.60;99.90;;;2.66;100.00;95477.81;5022381;28;1541;-71
2023/11/28 04:07:13;;;;;;;;;;;3.60;99.90;;;2.60;100.00;95486.63;5018534;28;2005;-72
2023/11/28 04:09:41;;;;;;;;;;;3.50;99.90;;;2.61;100.00;95490.00;5008039;28;1900;-72
2023/11/28 04:12:08;;;;;;;;;;;3.50;99.90;;;2.52;100.00;95498.94;5009103;28;1395;-72
2023/11/28 04:14:35;;;;;;;;;;;3.40;99.90;;;2.69;100.00;95495.59;5023021;28;1979;-71
2023/11/28 04:17:02;;;;;;;;;;;3.40;99.90;;;2.56;100.00;95505.56;5022068;28;1359;-72
2023/11/28 04:19:29;;;;;;;;;;;3.40;99.90;;;2.45;100.00;95510.34;5022640;28;1417;-72
2023/11/28 04:21:56;;;;;;;;;;;3.40;99.90;;;2.37;100.00;95517.50;5021158;28;1508;-72
2023/11/28 04:24:23;;;;;;;;;;;3.30;99.90;;;2.44;100.00;95519.75;5022468;28;1413;-73
2023/11/28 04:26:50;;;;;;;;;;;3.30;99.90;;;2.47;100.00;95523.91;5021951;28;1413;-72
2023/11/28 04:29:17;;;;;;;;;;;3.20;99.90;;;2.44;100.00;95531.69;5020893;28;1603;-73
2023/11/28 04:31:43;;;;;;;;;;;3.20;99.90;;;2.27;100.00;95542.69;5009731;28;1430;-71
2023/11/28 04:34:11;;;;;;;;;;;3.20;99.90;;;2.28;100.00;95540.06;5022447;28;1914;-72
2023/11/28 04:36:37;;;;;;;;;;;3.10;99.90;;;2.16;100.00;95555.91;5026416;28;1466;-73
2023/11/28 04:39:05;;;;;;;;;;;3.10;99.90;;;2.14;100.00;95551.75;5027529;28;1449;-73
2023/11/28 04:41:32;;;;;;;;;;;3.00;99.90;;;2.19;100.00;95554.97;5023067;28;1441;-72
2023/11/28 04:43:59;;;;;;;;;;;3.00;99.90;;;2.06;100.00;95563.16;5026880;28;1637;-72
2023/11/28 04:46:26;;;;;;;;;;;3.00;99.90;;;2.03;100.00;95560.72;5024949;28;1782;-72
2023/11/28 04:48:53;;;;;;;;;;;3.00;99.90;;;1.94;100.00;95567.94;5011741;28;1469;-72
2023/11/28 04:51:20;;;;;;;;;;;2.90;99.90;;;1.86;100.00;95569.06;5027854;28;1367;-71
2023/11/28 04:53:46;;;;;;;;;;;2.90;99.90;;;1.80;100.00;95574.47;5021480;28;1983;-71
2023/11/28 04:56:13;;;;;;;;;;;2.80;99.90;;;1.71;100.00;95586.75;5029130;28;1530;-72
2023/11/28 04:58:43;;;;;;;;;;;2.70;99.90;;;1.80;100.00;95587.25;5006217;28;1833;-70
2023/11/28 05:01:10;;;;;;;;;;;2.70;99.90;;;1.76;100.00;95595.94;5028506;28;1542;-71
2023/11/28 05:03:37;;;;;;;;;;;2.70;99.90;;;1.69;100.00;95594.53;5009675;28;1691;-72
2023/11/28 05:06:04;;;;;;;;;;;2.70;99.90;;;1.67;100.00;95609.09;5006950;28;1556;-72
2023/11/28 05:08:32;;;;;;;;;;;2.70;99.90;;;1.67;100.00;95617.59;5026525;28;1551;-73
2023/11/28 05:11:04;;;;;;;;;;;2.60;99.90;;;1.65;100.00;95631.31;5023528;28;1539;-71
2023/11/28 05:13:33;;;;;;;;;;;2.60;99.90;;;1.46;100.00;95646.53;5023963;28;1553;-73
2023/11/28 05:15:59;;;;;;;;;;;2.60;99.90;;;1.51;100.00;95639.53;5011912;28;1898;-72
2023/11/28 05:18:26;;;;;;;;;;;2.50;99.90;;;1.46;100.00;95651.66;5027516;28;1441;-72
2023/11/28 05:20:53;;;;;;;;;;;2.50;99.90;;;1.37;100.00;95645.16;5017251;28;1513;-72
2023/11/28 05:23:20;;;;;;;;;;;2.40;99.90;;;1.27;100.00;95664.28;5022066;28;1806;-72
2023/11/28 05:25:47;;;;;;;;;;;2.40;99.90;;;1.40;100.00;95669.78;5008707;28;1471;-72
2023/11/28 05:28:14;;;;;;;;;;;2.30;99.90;;;1.38;100.00;95666.44;5023706;28;1520;-71
2023/11/28 05:30:40;;;;;;;;;;;2.30;99.90;;;1.30;100.00;95671.84;5024233;28;1499;-71
2023/11/28 05:33:07;;;;;;;;;;;2.30;99.90;;;1.23;100.00;95685.72;5006441;28;1414;-72
2023/11/28 05:35:34;;;;;;;;;;;2.20;99.90;;;1.17;100.00;95694.44;5024604;28;1968;-71
2023/11/28 05:38:01;;;;;;;;;;;2.20;99.90;;;1.25;100.00;95696.72;5023912;28;1371;-71
2023/11/28 05:40:28;;;;;;;;;;;2.10;99.90;;;1.14;100.00;95707.34;5026721;28;1343;-71
2023/11/28 05:42:55;;;;;;;;;;;2.00;99.90;;;1.09;100.00;95721.97;5008443;28;1532;-71
2023/11/28 05:45:25;;;;;;;;;;;2.10;99.90;;;1.13;100.00;95717.59;5026108;28;1861;-73
2023/11/28 05:47:52;;;;;;;;;;;2.10;99.90;;;1.10;100.00;95730.50;5023247;28;1690;-72
2023/11/28 05:50:19;;;;;;;;;;;2.10;99.90;;;1.09;100.00;95739.88;5022134;28;1479;-71
2023/11/28 05:52:46;;;;;;;;;;;2.10;99.90;;;1.06;100.00;95739.16;5012432;28;1876;-71
2023/11/28 05:55:13;;;;;;;;;;;2.00;99.90;;;1.11;100.00;95745.75;5024827;28;1985;-71
2023/11/28 05:57:40;;;;;;;;;;;2.00;99.90;;;1.16;100.00;95743.88;5026046;28;1531;-72
2023/11/28 06:00:08;;;;;;;;;;;2.00;99.90;;;1.11;100.00;95752.59;5025441;28;1403;-71
2023/11/28 06:02:35;;;;;;;;;;;2.00;99.90;;;0.99;100.00;95757.25;5021668;28;1515;-71
2023/11/28 06:05:02;;;;;;;;;;;2.00;99.90;;;0.88;100.00;95774.66;5023523;28;1746;-73
2023/11/28 06:07:29;;;;;;;;;;;1.90;99.90;;;0.97;100.00;95776.88;5025333;28;1698;-71
2023/11/28 06:09:56;;;;;;;;;;;1.90;99.90;;;0.81;100.00;95771.47;5021812;28;1787;-74
2023/11/28 06:12:23;;;;;;;;;;;1.80;99.90;;;0.85;100.00;95787.53;5025386;28;1429;-71
2023/11/28 06:14:52;;;;;;;;;;;1.90;99.90;;;0.93;100.00;95795.75;5024629;28;1983;-73
2023/11/28 06:17:19;;;;;;;;;;;1.90;99.90;;;0.75;100.00;95810.00;5021438;28;1551;-72
2023/11/28 06:19:46;;;;;;;;;;;1.80;99.90;;;0.74;100.00;95820.25;5021205;28;1523;-70
2023/11/28 06:22:13;;;;;;;;;;;1.80;99.90;;;0.75;100.00;95824.44;5023856;28;1391;-71
2023/11/28 06:24:40;;;;;;;;;;;1.80;99.90;;;0.82;100.00;95819.13;5024808;28;1542;-71
2023/11/28 06:27:07;;;;;;;;;;;1.80;99.90;;;0.81;100.00;95824.25;5024773;28;1567;-71
2023/11/28 06:29:34;;;;;;;;;;;1.70;99.90;;;0.76;100.00;95838.91;5023591;28;1536;-72
2023/11/28 06:32:00;;;;;;;;;;;1.70;99.90;;;0.77;100.00;95849.06;5007286;28;1529;-71
2023/11/28 06:34:27;;;;;;;;;;;1.70;99.90;;;0.68;100.00;95851.06;5022009;28;1906;-71
2023/11/28 06:36:54;;;;;;;;;;;1.70;99.90;;;0.67;100.00;95859.63;5024950;28;1590;-72
2023/11/28 06:39:23;;;;;;;;;;;1.60;99.90;;;0.70;100.00;95867.19;5025951;28;1559;-73
2023/11/28 06:41:50;;;;;;;;;;;1.70;99.90;;;0.69;100.00;95879.13;5022763;28;1599;-72
2023/11/28 06:44:19;;;;;;;;;;;1.70;99.90;;;0.70;100.00;95883.31;5025955;28;1626;-74
2023/11/28 06:46:47;;;;;;;;;;;1.70;99.90;;;0.73;100.00;95895.16;5025882;28;1566;-71
2023/11/28 06:49:13;;;;;;;;;;;1.70;99.90;;;0.75;100.00;95896.81;5025075;28;1491;-71
2023/11/28 06:51:40;;;;;;;;;;;1.70;99.90;;;0.74;100.00;95902.78;5009211;28;1491;-73
2023/11/28 06:54:09;;;;;;;;;;;1.60;99.90;;;0.78;100.00;95914.59;5025324;28;1515;-72
2023/11/28 06:56:36;;;;;;;;;;;1.60;99.90;;;0.71;100.00;95920.78;5021443;28;1973;-71
2023/11/28 06:59:03;;;;;;;;;;;1.70;99.90;;;0.62;100.00;95932.09;5024906;28;1623;-71
2023/11/28 07:01:30;;;;;;;;;;;1.70;99.90;;;0.68;100.00;95935.34;5025815;28;1543;-72
2023/11/28 07:03:56;;;;;;;;;;;1.70;99.90;;;0.80;100.00;95946.03;5001165;28;1645;-72
2023/11/28 07:06:23;;;;;;;;;;;1.70;99.90;;;0.63;100.00;95954.19;5019205;28;1696;-70
2023/11/28 07:08:50;;;;;;;;;;;1.60;99.90;;;0.72;100.00;95954.78;5024053;28;1535;-72
2023/11/28 07:11:20;;;;;;;;;;;1.70;99.90;;;0.62;100.00;95956.78;5020173;28;1559;-71
2023/11/28 07:13:47;;;;;;;;;;;1.60;99.90;;;0.63;100.00;95963.56;5003706;28;1624;-71
2023/11/28 07:16:15;;;;;;;;;;;1.60;99.90;;;0.60;100.00;95964.50;5008067;28;2026;-70
2023/11/28 07:18:42;;;;;;;;;;;1.60;99.90;;;0.55;100.00;95974.00;5005816;28;1626;-71
2023/11/28 07:21:10;;;;;;;;;;;1.60;99.90;;;0.50;100.00;95980.09;5022673;28;1479;-70
2023/11/28 07:23:38;;;;;;;;;;;1.60;99.90;;;0.59;100.00;95997.72;5008897;28;1618;-71
2023/11/28 07:26:05;;;;;;;;;;;1.60;99.90;;;0.46;100.00;95994.69;5023832;28;1655;-71
2023/11/28 07:28:35;;;;;;;;;;;1.50;99.90;;;0.52;100.00;96001.31;5020901;28;1543;-71
2023/11/28 07:31:02;;;;;;;;;;;1.50;99.90;;;0.52;100.00;96009.81;5021398;28;1660;-71
2023/11/28 07:33:29;;;;;;;;;;;1.50;99.90;;;0.53;100.00;96013.22;5021945;28;1476;-71
2023/11/28 07:35:56;;;;;;;;;;;1.60;99.90;;;0.55;100.00;96030.19;5003740;28;1938;-71
2023/11/28 07:38:24;;;;;;;;;;;1.60;99.90;;;0.42;100.00;96023.72;5003802;28;1434;-71
2023/11/28 07:40:51;;;;;;;;;;;1.60;99.90;;;0.51;100.00;96038.78;5018941;28;1543;-71
2023/11/28 07:43:18;;;;;;;;;;;1.50;99.90;;;0.51;100.00;96043.06;5020607;28;1499;-70
2023/11/28 07:45:48;;;;;;;;;;;1.50;99.90;;;0.46;100.00;96052.53;5020418;28;1833;-70
2023/11/28 07:48:15;;;;;;;;;;;1.50;99.90;;;0.48;100.00;96063.56;5004273;28;1537;-70
2023/11/28 07:50:42;;;;;;;;;;;1.50;99.90;;;0.59;100.00;96070.06;5020428;28;1665;-70
2023/11/28 07:53:09;;;;;;;;;;;1.50;99.90;;;0.48;100.00;96079.72;5021351;28;1824;-71
2023/11/28 07:55:36;;;;;;;;;;;1.50;99.90;;;0.48;100.00;96097.59;5018498;28;1902;-71
2023/11/28 07:58:02;;;;;;;;;;;1.50;99.90;;;0.41;100.00;96096.94;5018349;28;2327;-71
2023/11/28 08:00:33;;;;;;;;;;;1.40;99.90;;;0.35;100.00;96091.13;5005463;28;1492;-71
2023/11/28 08:03:02;;;;;;;;;;;1.40;99.90;;;0.41;100.00;96096.06;5022595;28;1363;-71
2023/11/28 08:05:30;;;;;;;;;;;1.40;99.90;;;0.45;100.00;96107.88;5023658;28;1575;-70
2023/11/28 08:07:56;;;;;;;;;;;1.40;99.90;;;0.33;100.00;96106.47;5004725;28;1004;-71
2023/11/28 08:10:24;;;;;;;;;;;1.30;99.90;;;0.45;100.00;96117.25;5003027;28;1689;-71
2023/11/28 08:12:51;;;;;;;;;;;1.30;99.90;;;0.40;100.00;96130.13;5023781;28;1378;-71
2023/11/28 08:15:18;;;;;;;;;;;1.40;99.90;;;0.31;100.00;96127.81;5018665;28;1980;-71
2023/11/28 08:17:45;;;;;;;;;;;1.30;99.90;;;0.34;100.00;96133.69;5022303;28;1397;-70
2023/11/28 08:20:13;;;;;;;;;;;1.40;99.90;;;0.26;100.00;96140.69;5022049;28;1311;-71
2023/11/28 08:22:39;;;;;;;;;;;1.30;99.90;;;0.31;100.00;96143.13;5021885;28;1460;-70
2023/11/28 08:25:07;;;;;;;;;;;1.30;99.90;;;0.36;100.00;96149.78;5022604;28;1334;-70
2023/11/28 08:27:33;;;;;;;;;;;1.30;99.90;;;0.29;100.00;96153.38;5016539;28;1437;-71
2023/11/28 08:30:00;;;;;;;;;;;1.30;99.90;;;0.31;100.00;96153.34;5022332;28;1338;-70
2023/11/28 08:32:31;;;;;;;;;;;1.30;99.90;;;0.26;100.00;96156.00;5020814;28;1389;-71
2023/11/28 08:35:01;;;;;;;;;;;1.30;99.90;;;0.20;100.00;96159.53;5021243;28;1980;-71
2023/11/28 08:37:28;;;;;;;;;;;1.30;99.90;;;0.23;100.00;96170.53;5019031;28;1564;-71
2023/11/28 08:39:54;;;;;;;;;;;1.30;99.90;;;0.36;100.00;96171.91;5004243;28;1847;-71
2023/11/28 08:42:21;;;;;;;;;;;1.30;99.90;;;0.22;100.00;96179.09;4986345;28;1349;-71
2023/11/28 08:44:48;;;;;;;;;;;1.30;99.90;;;0.29;100.00;96181.44;5008802;28;1026;-71
2023/11/28 08:47:15;;;;;;;;;;;1.30;99.90;;;0.28;100.00;96187.44;5024783;28;1334;-71
2023/11/28 08:49:46;;;;;;;;;;;1.30;99.90;;;0.18;100.00;96186.81;5021314;28;1372;-71
2023/11/28 08:52:13;;;;;;;;;;;1.30;99.90;;;0.23;100.00;96206.28;5018991;28;1446;-71
2023/11/28 08:54:46;;;;;;;;;;;1.40;99.90;;;0.31;100.00;96206.94;5022344;28;2029;-71
2023/11/28 08:57:17;;;;;;;;;;;1.40;99.90;;;0.15;100.00;96222.59;5019964;28;1910;-70
2023/11/28 08:59:43;;;;;;;;;;;1.40;99.90;;;0.15;100.00;96224.31;5019216;28;1637;-71
2023/11/28 09:02:10;;;;;;;;;;;1.30;99.90;;;0.24;100.00;96236.03;5019911;28;1400;-70
2023/11/28 09:04:37;;;;;;;;;;;1.40;99.90;;;0.35;100.00;96246.84;5020813;28;1532;-71
2023/11/28 09:07:05;;;;;;;;;;;1.30;99.90;;;0.43;100.00;96252.56;5021340;28;1739;-72
2023/11/28 09:09:31;;;;;;;;;;;1.30;99.90;;;0.39;100.00;96241.63;5005111;28;1557;-70
2023/11/28 09:11:58;;;;;;;;;;;1.40;99.90;;;0.26;100.00;96265.75;5020009;28;1599;-71
2023/11/28 09:14:25;;;;;;;;;;;1.30;99.90;;;0.23;100.00;96273.47;5019674;28;1480;-71
2023/11/28 09:16:52;;;;;;;;;;;1.30;99.90;;;0.33;100.00;96267.28;5017011;28;2033;-72
2023/11/28 09:19:19;;;;;;;;;;;1.40;99.90;;;0.33;100.00;96266.44;5021431;28;1755;-70
2023/11/28 09:21:46;;;;;;;;;;;1.30;99.90;;;0.38;100.00;96275.66;5020358;28;1570;-72
2023/11/28 09:24:13;;;;;;;;;;;1.30;99.90;;;0.35;100.00;96280.84;5024981;28;1547;-71
2023/11/28 09:26:39;;;;;;;;;;;1.30;99.90;;;0.34;100.00;96279.19;5022388;28;1543;-70
2023/11/28 09:29:06;;;;;;;;;;;1.30;99.90;;;0.33;100.00;96295.34;5025733;28;1540;-71
2023/11/28 09:31:36;;;;;;;;;;;1.30;99.90;;;0.45;100.00;96294.22;5022116;28;1612;-70
2023/11/28 09:34:03;;;;;;;;;;;1.40;99.90;;;0.46;100.00;96297.59;5007174;28;1523;-72
2023/11/28 09:36:30;;;;;;;;;;;1.40;99.90;;;0.34;100.00;96311.50;5026105;28;1906;-70
2023/11/28 09:39:03;;;;;;;;;;;1.40;99.90;;;0.36;100.00;96314.84;5023494;28;1377;-70
2023/11/28 09:41:32;;;;;;;;;;;1.40;99.90;;;0.36;100.00;96320.78;5023889;28;1410;-70
2023/11/28 09:44:16;;;;;;;;;;;1.40;99.90;;;0.39;100.00;96323.28;5028117;28;1047;-70
2023/11/28 09:46:47;;;;;;;;;;;1.40;99.90;;;0.42;100.00;96319.84;5024086;28;1366;-71
2023/11/28 09:49:18;;;;;;;;;;;1.50;99.90;;;0.43;100.00;96310.47;5017860;28;1653;-73
2023/11/28 09:51:46;;;;;;;;;;;1.50;99.90;;;0.39;100.00;96325.03;5021412;28;1653;-71
2023/11/28 09:54:14;;;;;;;;;;;1.40;99.90;;;0.48;100.00;96329.91;5019225;28;1589;-71
2023/11/28 09:56:44;;;;;;;;;;;1.40;99.90;;;0.53;100.00;96332.38;5002556;28;1914;-71
2023/11/28 09:59:15;;;;;;;;;;;1.50;99.90;;;0.46;100.00;96335.91;5023601;28;1534;-71
2023/11/28 10:01:42;;;;;;;;;;;1.50;99.90;;;0.47;100.00;96335.88;5019560;28;1701;-72
2023/11/28 10:04:09;;;;;;;;;;;1.40;99.90;;;0.39;100.00;96340.34;5025055;28;1542;-71
2023/11/28 10:06:42;;;;;;;;;;;1.50;99.90;;;0.40;100.00;96347.94;5019229;28;1582;-70
2023/11/28 10:09:10;;;;;;;;;;;1.40;99.90;;;0.53;100.00;96351.06;4987198;28;1649;-71
2023/11/28 10:11:38;;;;;;;;;;;1.40;99.90;;;0.45;100.00;96357.22;5021538;28;1580;-72
2023/11/28 10:14:06;;;;;;;;;;;1.40;99.90;;;0.42;100.00;96353.03;5005272;28;1679;-70
2023/11/28 10:16:44;;;;;;;;;;;1.40;99.90;;;0.43;100.00;96356.41;5004438;28;1989;-70
2023/11/28 10:19:11;;;;;;;;;;;1.30;99.90;;;0.48;100.00;96359.69;5007524;28;1652;-71
2023/11/28 10:21:41;;;;;;;;;;;1.40;99.90;;;0.49;100.00;96369.88;5021024;28;1955;-71
2023/11/28 10:24:11;;;;;;;;;;;1.40;99.90;;;0.50;100.00;96370.72;5006870;28;1572;-70
2023/11/28 10:26:39;;;;;;;;;;;1.50;99.90;;;0.54;100.00;96380.00;5019750;28;1626;-70
2023/11/28 10:29:06;;;;;;;;;;;1.50;99.90;;;0.51;100.00;96385.16;5018340;28;1816;-71
2023/11/28 10:31:38;;;;;;;;;;;1.50;99.90;;;0.52;100.00;96395.31;5013525;28;1656;-70
2023/11/28 10:34:08;;;;;;;;;;;1.50;99.90;;;0.38;100.00;96403.28;5023082;28;1464;-71
2023/11/28 10:36:42;;;;;;;;;;;1.60;99.90;;;0.56;100.00;96414.00;5004522;28;1993;-70
2023/11/28 10:39:18;;;;;;;;;;;1.60;99.90;;;0.44;100.00;96416.81;5005757;28;1579;-71
2023/11/28 10:41:47;;;;;;;;;;;1.60;99.90;;;0.46;100.00;96428.69;5001967;28;1714;-71
2023/11/28 10:44:14;;;;;;;;;;;1.50;99.90;;;0.45;100.00;96429.53;5002886;28;1600;-71
2023/11/28 10:46:41;;;;;;;;;;;1.40;99.90;;;0.40;100.00;96439.84;5019940;28;1549;-72
2023/11/28 10:49:08;;;;;;;;;;;1.50;99.90;;;0.48;100.00;96444.81;5014727;28;1635;-71
2023/11/28 10:51:36;;;;;;;;;;;1.60;99.90;;;0.42;100.00;96450.03;5018906;28;1583;-73
2023/11/28 10:54:07;;;;;;;;;;;1.60;99.90;;;0.63;100.00;96449.56;5007156;28;1638;-71
2023/11/28 10:56:47;;;;;;;;;;;1.60;99.90;;;0.73;100.00;96449.34;5020595;28;1976;-70
2023/11/28 10:59:19;;;;;;;;;;;1.70;99.90;;;0.72;100.00;96458.75;5006188;28;1638;-71
2023/11/28 11:01:47;;;;;;;;;;;1.70;99.90;;;0.69;100.00;96453.72;5021143;28;1399;-70
2023/11/28 11:04:15;;;;;;;;;;;1.80;99.90;;;0.70;100.00;96464.75;5005146;28;1727;-71
2023/11/28 11:06:42;;;;;;;;;;;1.70;99.90;;;0.72;100.00;96463.03;5006152;28;1625;-71
2023/11/28 11:09:11;;;;;;;;;;;1.70;99.90;;;0.61;100.00;96453.84;5021652;28;1461;-70
2023/11/28 11:11:39;;;;;;;;;;;1.70;99.90;;;0.60;100.00;96452.19;5021255;28;1312;-72
2023/11/28 11:14:37;;;;;;;;;;;1.70;99.90;;;0.53;100.00;96453.19;5005060;28;1572;-71
2023/11/28 11:17:19;;;;;;;;;;;1.60;99.90;;;0.75;100.00;96457.84;5004600;28;1973;-71
2023/11/28 11:19:47;;;;;;;;;;;1.70;99.90;;;0.74;100.00;96462.09;5006896;28;1051;-71
2023/11/28 11:22:18;;;;;;;;;;;1.70;99.90;;;0.56;100.00;96468.44;5002444;28;1699;-70
2023/11/28 11:24:47;;;;;;;;;;;1.70;99.90;;;0.64;100.00;96465.75;5019739;28;1383;-72
2023/11/28 11:27:17;;;;;;;;;;;1.80;99.90;;;0.60;100.00;96471.78;5022182;28;1469;-71
2023/11/28 11:29:44;;;;;;;;;;;1.70;99.90;;;0.85;100.00;96469.53;5020444;28;969;-71
2023/11/28 11:32:12;;;;;;;;;;;1.70;99.90;;;0.88;100.00;96469.47;5003754;28;1889;-70
2023/11/28 11:34:44;;;;;;;;;;;1.80;99.90;;;0.81;100.00;96476.41;5017468;28;1597;-70
2023/11/28 11:37:14;;;;;;;;;;;1.90;99.90;;;0.74;100.00;96476.59;5018799;28;1906;-71